createdAt,value
2019-03-23T00:01:50.181Z,2.53
2019-03-23T00:04:19.681Z,2.70
2019-03-23T00:06:48.985Z,3.37
2019-03-23T00:09:17.631Z,3.33
2019-03-23T00:11:46.922Z,2.70
2019-03-23T00:14:16.197Z,2.97
2019-03-23T00:16:45.489Z,2.23
2019-03-23T00:19:14.137Z,2.80
2019-03-23T00:21:42.713Z,2.50
2019-03-23T00:24:11.284Z,3.03
2019-03-23T00:26:40.855Z,3.03
2019-03-23T00:29:10.165Z,2.80
2019-03-23T00:31:39.462Z,2.83
2019-03-23T00:34:08.853Z,2.07
2019-03-23T00:36:41.698Z,2.30
2019-03-23T00:39:09.370Z,2.70
2019-03-23T00:41:37.929Z,2.80
2019-03-23T00:44:07.549Z,2.70
2019-03-23T00:46:36.263Z,3.10
2019-03-23T00:49:05.901Z,2.30
2019-03-23T00:51:35.270Z,2.63
2019-03-23T00:54:04.992Z,3.27
2019-03-23T00:56:34.262Z,3.43
2019-03-23T00:59:03.621Z,2.83
2019-03-23T01:01:32.901Z,3.60
2019-03-23T01:04:02.434Z,3.00
2019-03-23T01:06:31.733Z,3.03
2019-03-23T01:09:00.300Z,2.23
2019-03-23T01:11:29.653Z,3.07
2019-03-23T01:13:58.221Z,2.90
2019-03-23T01:16:27.498Z,2.97
2019-03-23T01:18:56.226Z,2.97
2019-03-23T01:21:25.589Z,3.00
2019-03-23T01:23:54.952Z,3.30
2019-03-23T01:26:24.234Z,3.60
2019-03-23T01:28:53.537Z,3.30
2019-03-23T01:31:22.101Z,4.00
2019-03-23T01:33:51.410Z,3.50
2019-03-23T01:36:20.676Z,3.30
2019-03-23T01:38:49.955Z,3.57
2019-03-23T01:41:18.538Z,4.30
2019-03-23T01:43:47.845Z,4.10
2019-03-23T01:46:17.405Z,4.63
2019-03-23T01:48:45.976Z,3.57
2019-03-23T01:51:15.447Z,4.40
2019-03-23T01:53:44.983Z,3.83
2019-03-23T01:56:14.402Z,4.13
2019-03-23T01:58:43.688Z,4.47
2019-03-23T02:01:12.960Z,4.60
2019-03-23T02:03:42.255Z,4.47
2019-03-23T02:06:11.529Z,4.50
2019-03-23T02:08:41.065Z,4.23
2019-03-23T02:11:09.641Z,5.05
2019-03-23T02:13:38.986Z,5.50
2019-03-23T02:16:08.269Z,5.47
2019-03-23T02:18:37.542Z,5.23
2019-03-23T02:21:07.138Z,5.90
2019-03-23T02:23:36.413Z,6.00
2019-03-23T02:26:04.993Z,5.73
2019-03-23T02:28:34.286Z,4.62
2019-03-23T02:31:03.592Z,6.23
2019-03-23T02:33:32.984Z,5.87
2019-03-23T02:36:01.558Z,5.83
2019-03-23T02:38:30.117Z,5.43
2019-03-23T02:40:59.409Z,5.93
2019-03-23T02:43:28.004Z,5.97
2019-03-23T02:45:57.327Z,5.70
2019-03-23T02:48:25.886Z,6.00
2019-03-23T02:50:55.181Z,7.80
2019-03-23T02:53:24.470Z,7.10
2019-03-23T02:55:53.830Z,7.20
2019-03-23T02:58:23.111Z,6.93
2019-03-23T03:00:52.417Z,6.70
2019-03-23T03:03:21.281Z,9.55
2019-03-23T03:05:49.924Z,7.42
2019-03-23T03:08:19.313Z,9.28
2019-03-23T03:10:47.902Z,6.47
2019-03-23T03:13:17.190Z,7.27
2019-03-23T03:15:45.809Z,7.03
2019-03-23T03:18:15.181Z,9.10
2019-03-23T03:20:44.563Z,7.53
2019-03-23T03:23:13.857Z,9.73
2019-03-23T03:25:43.228Z,9.70
2019-03-23T03:28:12.513Z,8.25
2019-03-23T03:30:42.088Z,7.97
2019-03-23T03:33:11.416Z,8.70
2019-03-23T03:35:39.980Z,9.55
2019-03-23T03:38:08.618Z,10.72
2019-03-23T03:40:37.922Z,9.13
2019-03-23T03:43:06.497Z,9.48
2019-03-23T03:45:35.788Z,9.70
2019-03-23T03:48:04.443Z,8.55
2019-03-23T03:50:33.086Z,10.90
2019-03-23T03:53:02.419Z,11.28
2019-03-23T03:55:31.746Z,9.03
2019-03-23T03:58:01.091Z,8.58
2019-03-23T04:00:30.481Z,10.15
2019-03-23T04:02:59.848Z,17.37
2019-03-23T04:05:29.133Z,10.57
2019-03-23T04:08:10.333Z,9.70
2019-03-23T04:10:28.035Z,9.35
2019-03-23T04:12:57.379Z,9.28
2019-03-23T04:15:26.705Z,10.50
2019-03-23T04:17:55.337Z,9.33
2019-03-23T04:20:24.626Z,9.95
2019-03-23T04:22:53.930Z,11.10
2019-03-23T04:25:23.468Z,11.12
2019-03-23T04:27:52.768Z,10.55
2019-03-23T04:30:21.352Z,10.85
2019-03-23T04:32:50.658Z,9.95
2019-03-23T04:35:20.011Z,10.98
2019-03-23T04:37:49.340Z,12.28
2019-03-23T04:40:18.000Z,12.35
2019-03-23T04:42:47.340Z,11.43
2019-03-23T04:45:15.989Z,18.20
2019-03-23T04:47:44.589Z,24.37
2019-03-23T04:50:13.947Z,31.20
2019-03-23T04:52:42.821Z,30.47
2019-03-23T04:55:11.654Z,32.70
2019-03-23T04:57:41.793Z,31.83
2019-03-23T05:00:11.097Z,33.42
2019-03-23T05:02:40.478Z,35.07
2019-03-23T05:05:10.167Z,30.50
2019-03-23T05:07:39.444Z,36.77
2019-03-23T05:10:08.470Z,32.90
2019-03-23T05:12:37.049Z,30.70
2019-03-23T05:15:07.646Z,31.83
2019-03-23T05:17:36.322Z,30.23
2019-03-23T05:20:06.725Z,29.80
2019-03-23T05:22:36.081Z,33.10
2019-03-23T05:25:06.277Z,29.10
2019-03-23T05:27:34.835Z,33.07
2019-03-23T05:30:04.623Z,30.07
2019-03-23T05:32:33.922Z,30.87
2019-03-23T05:35:03.296Z,29.87
2019-03-23T05:37:31.865Z,28.70
2019-03-23T05:40:00.446Z,31.13
2019-03-23T05:42:29.748Z,29.00
2019-03-23T05:44:58.351Z,27.60
2019-03-23T05:47:26.929Z,29.37
2019-03-23T05:49:55.516Z,29.87
2019-03-23T05:52:24.812Z,27.60
2019-03-23T05:54:54.152Z,27.80
2019-03-23T05:57:23.778Z,26.73
2019-03-23T05:59:53.081Z,26.77
2019-03-23T06:02:24.794Z,28.33
2019-03-23T06:04:53.381Z,29.33
2019-03-23T06:07:22.666Z,29.53
2019-03-23T06:09:51.264Z,29.80
2019-03-23T06:12:19.844Z,32.43
2019-03-23T06:14:49.154Z,26.97
2019-03-23T06:17:17.866Z,29.60
2019-03-23T06:19:47.204Z,31.97
2019-03-23T06:22:16.512Z,29.23
2019-03-23T06:24:45.817Z,28.13
2019-03-23T06:27:15.109Z,30.23
2019-03-23T06:29:45.731Z,27.03
2019-03-23T06:32:14.989Z,27.97
2019-03-23T06:34:43.578Z,29.23
2019-03-23T06:37:12.897Z,28.37
2019-03-23T06:39:41.562Z,29.70
2019-03-23T06:42:10.867Z,27.90
2019-03-23T06:44:39.453Z,27.73
2019-03-23T06:47:08.041Z,33.67
2019-03-23T06:49:37.342Z,31.30
2019-03-23T06:52:05.929Z,27.63
2019-03-23T06:54:35.230Z,31.13
2019-03-23T06:57:04.629Z,29.63
2019-03-23T06:59:33.209Z,31.23
2019-03-23T07:02:02.546Z,30.17
2019-03-23T07:04:31.845Z,32.00
2019-03-23T07:07:01.153Z,27.63
2019-03-23T07:09:29.728Z,26.93
2019-03-23T07:11:59.052Z,27.07
2019-03-23T07:14:27.644Z,26.30
2019-03-23T07:16:56.945Z,25.80
2019-03-23T07:19:26.270Z,25.90
2019-03-23T07:21:55.589Z,24.00
2019-03-23T07:24:24.173Z,26.93
2019-03-23T07:26:53.491Z,26.50
2019-03-23T07:29:22.073Z,22.70
2019-03-23T07:31:50.669Z,24.13
2019-03-23T07:34:19.966Z,25.77
2019-03-23T07:36:49.249Z,23.33
2019-03-23T07:39:26.722Z,28.03
2019-03-23T07:41:48.416Z,26.77
2019-03-23T07:44:17.714Z,25.60
2019-03-23T07:46:46.299Z,27.07
2019-03-23T07:49:14.890Z,27.57
2019-03-23T07:51:44.258Z,27.30
2019-03-23T07:54:13.662Z,27.17
2019-03-23T07:56:43.441Z,28.10
2019-03-23T07:59:12.043Z,29.97
2019-03-23T08:01:41.497Z,29.77
2019-03-23T08:04:10.878Z,25.67
2019-03-23T08:06:39.448Z,27.57
2019-03-23T08:09:08.066Z,27.40
2019-03-23T08:11:37.499Z,27.03
2019-03-23T08:14:06.211Z,29.87
2019-03-23T08:16:35.573Z,29.47
2019-03-23T08:19:04.175Z,30.63
2019-03-23T08:21:33.717Z,26.27
2019-03-23T08:24:04.214Z,30.87
2019-03-23T08:26:33.508Z,32.00
2019-03-23T08:29:03.310Z,32.33
2019-03-23T08:31:32.741Z,32.90
2019-03-23T08:34:02.050Z,31.63
2019-03-23T08:36:30.730Z,26.83
2019-03-23T08:38:59.328Z,30.03
2019-03-23T08:41:27.912Z,29.17
2019-03-23T08:43:57.227Z,28.37
2019-03-23T08:46:28.415Z,26.23
2019-03-23T08:48:59.368Z,28.70
2019-03-23T08:51:27.946Z,27.27
2019-03-23T08:53:56.670Z,27.77
2019-03-23T08:56:25.259Z,29.50
2019-03-23T08:58:54.869Z,30.40
2019-03-23T09:01:23.457Z,30.73
2019-03-23T09:03:52.873Z,29.10
2019-03-23T09:06:21.613Z,27.33
2019-03-23T09:08:50.192Z,31.43
2019-03-23T09:11:20.760Z,24.77
2019-03-23T09:13:49.111Z,26.70
2019-03-23T09:16:17.691Z,27.67
2019-03-23T09:18:46.289Z,24.27
2019-03-23T09:21:14.873Z,28.43
2019-03-23T09:23:43.465Z,25.00
2019-03-23T09:26:13.711Z,23.30
2019-03-23T09:28:42.427Z,25.83
2019-03-23T09:31:11.009Z,26.03
2019-03-23T09:33:39.601Z,27.33
2019-03-23T09:36:08.196Z,25.10
2019-03-23T09:38:37.486Z,24.83
2019-03-23T09:41:06.150Z,21.37
2019-03-23T09:43:34.737Z,22.00
2019-03-23T09:46:03.372Z,23.53
2019-03-23T09:48:32.462Z,24.23
2019-03-23T09:51:01.546Z,22.20
2019-03-23T09:53:30.177Z,25.17
2019-03-23T09:55:59.481Z,25.07
2019-03-23T09:58:28.061Z,24.73
2019-03-23T10:00:57.345Z,22.43
2019-03-23T10:03:25.917Z,24.73
2019-03-23T10:05:55.218Z,24.73
2019-03-23T10:08:23.805Z,23.33
2019-03-23T10:10:52.485Z,22.27
2019-03-23T10:13:21.077Z,23.83
2019-03-23T10:15:49.671Z,24.73
2019-03-23T10:18:18.237Z,23.87
2019-03-23T10:20:47.533Z,27.80
2019-03-23T10:23:16.117Z,27.50
2019-03-23T10:25:45.440Z,26.47
2019-03-23T10:28:14.011Z,27.00
2019-03-23T10:30:42.685Z,27.47
2019-03-23T10:33:11.267Z,28.77
2019-03-23T10:35:39.854Z,26.20
2019-03-23T10:38:09.132Z,27.43
2019-03-23T10:40:37.729Z,29.83
2019-03-23T10:43:06.309Z,28.10
2019-03-23T10:45:43.837Z,26.77
2019-03-23T10:48:05.530Z,26.57
2019-03-23T10:50:34.117Z,25.67
2019-03-23T10:53:03.415Z,27.67
2019-03-23T10:55:32.721Z,26.00
2019-03-23T10:58:03.401Z,26.90
2019-03-23T11:00:32.792Z,22.67
2019-03-23T11:03:01.377Z,25.13
2019-03-23T11:05:30.041Z,26.90
2019-03-23T11:07:59.355Z,25.80
2019-03-23T11:10:27.921Z,25.07
2019-03-23T11:12:56.504Z,25.73
2019-03-23T11:15:25.803Z,25.73
2019-03-23T11:17:54.397Z,26.70
2019-03-23T11:20:23.762Z,28.13
2019-03-23T11:22:53.097Z,28.03
2019-03-23T11:25:22.738Z,28.53
2019-03-23T11:27:51.361Z,26.87
2019-03-23T11:30:20.946Z,28.80
2019-03-23T11:32:55.935Z,29.50
2019-03-23T11:35:42.244Z,28.63
2019-03-23T11:38:10.912Z,26.53
2019-03-23T11:40:39.501Z,29.53
2019-03-23T11:43:08.076Z,28.90
2019-03-23T11:45:36.970Z,28.17
2019-03-23T11:48:06.393Z,30.77
2019-03-23T11:50:35.125Z,26.40
2019-03-23T11:53:04.575Z,26.47
2019-03-23T11:55:33.901Z,28.23
2019-03-23T11:58:03.249Z,28.17
2019-03-23T12:00:32.617Z,29.10
2019-03-23T12:03:01.965Z,28.20
2019-03-23T12:05:31.294Z,26.43
2019-03-23T12:07:59.893Z,28.20
2019-03-23T12:10:29.215Z,25.93
2019-03-23T12:12:57.838Z,28.13
2019-03-23T12:15:29.740Z,28.07
2019-03-23T12:17:57.878Z,28.63
2019-03-23T12:20:27.188Z,27.30
2019-03-23T12:22:56.489Z,25.00
2019-03-23T12:25:25.782Z,26.03
2019-03-23T12:27:55.093Z,27.53
2019-03-23T12:30:24.412Z,28.30
2019-03-23T12:32:53.812Z,28.40
2019-03-23T12:35:23.109Z,28.33
2019-03-23T12:37:51.965Z,27.10
2019-03-23T12:40:20.622Z,27.10
2019-03-23T12:42:49.928Z,27.23
2019-03-23T12:45:19.431Z,27.93
2019-03-23T12:47:48.077Z,25.87
2019-03-23T12:50:18.588Z,27.13
2019-03-23T12:52:48.443Z,28.53
2019-03-23T12:55:18.013Z,28.27
2019-03-23T12:57:47.441Z,27.37
2019-03-23T13:00:17.175Z,28.57
2019-03-23T13:02:46.554Z,26.87
2019-03-23T13:05:15.942Z,28.40
2019-03-23T13:07:44.593Z,24.77
2019-03-23T13:10:14.186Z,25.80
2019-03-23T13:12:42.834Z,25.53
2019-03-23T13:15:12.330Z,26.90
2019-03-23T13:17:41.978Z,24.07
2019-03-23T13:20:11.473Z,25.90
2019-03-23T13:22:40.944Z,25.97
2019-03-23T13:25:10.548Z,26.00
2019-03-23T13:27:42.051Z,25.37
2019-03-23T13:30:11.836Z,25.93
2019-03-23T13:32:40.510Z,27.50
2019-03-23T13:35:10.062Z,25.47
2019-03-23T13:37:39.550Z,26.63
2019-03-23T13:40:09.882Z,26.87
2019-03-23T13:42:38.576Z,27.77
2019-03-23T13:45:08.918Z,25.40
2019-03-23T13:47:38.365Z,28.50
2019-03-23T13:50:07.289Z,25.97
2019-03-23T13:52:36.822Z,26.33
2019-03-23T13:55:06.728Z,25.17
2019-03-23T13:57:35.560Z,27.83
2019-03-23T14:00:05.589Z,26.17
2019-03-23T14:02:34.921Z,28.40
2019-03-23T14:05:03.572Z,28.60
2019-03-23T14:07:32.861Z,27.57
2019-03-23T14:10:01.464Z,27.80
2019-03-23T14:12:30.835Z,26.90
2019-03-23T14:15:00.292Z,27.30
2019-03-23T14:17:29.680Z,29.47
2019-03-23T14:19:59.001Z,29.17
2019-03-23T14:22:28.417Z,29.80
2019-03-23T14:24:57.942Z,27.43
2019-03-23T14:27:27.250Z,26.87
2019-03-23T14:29:56.561Z,26.73
2019-03-23T14:32:26.128Z,27.27
2019-03-23T14:34:55.574Z,26.27
2019-03-23T14:37:25.428Z,27.20
2019-03-23T14:39:54.441Z,27.03
2019-03-23T14:42:24.248Z,25.73
2019-03-23T14:44:53.520Z,24.30
2019-03-23T14:47:22.452Z,24.13
2019-03-23T14:49:51.745Z,23.00
2019-03-23T14:52:21.143Z,22.77
2019-03-23T14:54:50.534Z,23.10
2019-03-23T14:57:19.833Z,21.43
2019-03-23T14:59:49.137Z,20.17
2019-03-23T15:02:18.562Z,21.20
2019-03-23T15:04:47.942Z,20.93
2019-03-23T15:07:17.241Z,20.87
2019-03-23T15:09:45.805Z,20.37
2019-03-23T15:12:15.400Z,21.37
2019-03-23T15:14:44.525Z,20.63
2019-03-23T15:17:13.869Z,20.53
2019-03-23T15:19:43.222Z,21.33
2019-03-23T15:22:12.625Z,21.40
2019-03-23T15:24:41.221Z,20.97
2019-03-23T15:27:10.634Z,19.83
2019-03-23T15:29:39.929Z,20.33
2019-03-23T15:32:08.560Z,22.50
2019-03-23T15:34:37.879Z,21.87
2019-03-23T15:37:07.298Z,20.13
2019-03-23T15:39:35.889Z,21.60
2019-03-23T15:42:04.693Z,18.87
2019-03-23T15:44:34.179Z,19.83
2019-03-23T15:47:02.811Z,20.70
2019-03-23T15:49:32.097Z,20.13
2019-03-23T15:52:01.709Z,19.70
2019-03-23T15:54:31.015Z,19.17
2019-03-23T15:56:59.586Z,21.00
2019-03-23T15:59:28.941Z,20.57
2019-03-23T16:01:58.313Z,20.57
2019-03-23T16:04:27.621Z,20.87
2019-03-23T16:06:56.930Z,19.47
2019-03-23T16:09:25.600Z,20.73
2019-03-23T16:11:54.172Z,21.40
2019-03-23T16:14:23.477Z,21.10
2019-03-23T16:16:52.849Z,21.83
2019-03-23T16:19:21.429Z,20.43
2019-03-23T16:21:50.733Z,21.23
2019-03-23T16:24:20.153Z,20.53
2019-03-23T16:26:48.766Z,20.83
2019-03-23T16:29:17.360Z,18.93
2019-03-23T16:31:46.693Z,19.27
2019-03-23T16:34:15.393Z,19.83
2019-03-23T16:36:46.357Z,18.87
2019-03-23T16:39:15.078Z,21.50
2019-03-23T16:41:43.649Z,19.07
2019-03-23T16:44:12.422Z,22.97
2019-03-23T16:46:41.005Z,21.23
2019-03-23T16:49:09.819Z,22.10
2019-03-23T16:51:38.397Z,22.17
2019-03-23T16:54:07.005Z,22.00
2019-03-23T16:56:35.583Z,22.50
2019-03-23T16:59:04.260Z,24.17
2019-03-23T17:01:33.626Z,21.97
2019-03-23T17:04:02.290Z,27.43
2019-03-23T17:06:30.944Z,24.77
2019-03-23T17:08:59.523Z,20.53
2019-03-23T17:11:28.181Z,23.17
2019-03-23T17:13:57.571Z,22.93
2019-03-23T17:16:26.157Z,22.87
2019-03-23T17:18:54.730Z,22.23
2019-03-23T17:21:24.045Z,21.90
2019-03-23T17:23:52.637Z,23.23
2019-03-23T17:26:21.950Z,21.03
2019-03-23T17:28:50.533Z,22.17
2019-03-23T17:31:19.941Z,21.17
2019-03-23T17:33:49.412Z,22.67
2019-03-23T17:36:18.764Z,23.00
2019-03-23T17:38:48.194Z,21.03
2019-03-23T17:41:17.733Z,22.10
2019-03-23T17:43:47.041Z,21.43
2019-03-23T17:46:34.618Z,20.13
2019-03-23T17:49:04.072Z,21.50
2019-03-23T17:51:39.044Z,20.67
2019-03-23T17:54:08.409Z,23.17
2019-03-23T17:56:37.828Z,19.43
2019-03-23T17:59:07.245Z,20.27
2019-03-23T18:01:36.653Z,21.87
2019-03-23T18:04:05.942Z,21.63
2019-03-23T18:06:35.342Z,23.17
2019-03-23T18:09:06.095Z,20.37
2019-03-23T18:11:35.426Z,19.37
2019-03-23T18:14:04.845Z,21.40
2019-03-23T18:16:34.277Z,20.20
2019-03-23T18:19:11.710Z,21.10
2019-03-23T18:21:41.030Z,20.13
2019-03-23T18:24:10.437Z,23.17
2019-03-23T18:26:39.809Z,18.53
2019-03-23T18:29:09.149Z,20.47
2019-03-23T18:31:38.466Z,23.90
2019-03-23T18:34:07.055Z,20.73
2019-03-23T18:36:35.649Z,20.03
2019-03-23T18:39:06.217Z,29.07
2019-03-23T18:41:35.685Z,21.77
2019-03-23T18:44:15.752Z,19.40
2019-03-23T18:46:38.605Z,19.83
2019-03-23T18:49:07.912Z,18.37
2019-03-23T18:51:37.229Z,19.67
2019-03-23T18:54:05.909Z,18.93
2019-03-23T18:56:35.281Z,19.00
2019-03-23T18:59:04.669Z,20.50
2019-03-23T19:01:33.989Z,20.30
2019-03-23T19:04:03.369Z,23.97
2019-03-23T19:06:32.937Z,20.47
2019-03-23T19:09:01.541Z,21.23
2019-03-23T19:11:30.163Z,24.57
2019-03-23T19:13:59.553Z,26.53
2019-03-23T19:16:28.209Z,22.23
2019-03-23T19:18:57.554Z,20.43
2019-03-23T19:21:26.917Z,23.60
2019-03-23T19:24:51.123Z,21.30
2019-03-23T19:27:20.611Z,21.40
2019-03-23T19:29:49.909Z,21.97
2019-03-23T19:32:19.409Z,23.20
2019-03-23T19:34:48.096Z,20.07
2019-03-23T19:37:16.760Z,20.60
2019-03-23T19:39:46.314Z,20.30
2019-03-23T19:42:15.635Z,21.03
2019-03-23T19:44:44.193Z,19.43
2019-03-23T19:47:13.486Z,20.03
2019-03-23T19:49:42.172Z,21.27
2019-03-23T19:52:11.537Z,19.57
2019-03-23T19:54:40.125Z,20.63
2019-03-23T19:57:08.953Z,19.53
2019-03-23T19:59:37.552Z,20.33
2019-03-23T20:02:07.265Z,20.83
2019-03-23T20:04:35.853Z,20.10
2019-03-23T20:07:05.369Z,22.83
2019-03-23T20:09:35.145Z,19.43
2019-03-23T20:12:03.839Z,20.60
2019-03-23T20:14:33.222Z,18.97
2019-03-23T20:17:02.803Z,20.80
2019-03-23T20:19:32.128Z,19.17
2019-03-23T20:22:01.418Z,20.83
2019-03-23T20:24:30.006Z,19.50
2019-03-23T20:26:59.334Z,20.30
2019-03-23T20:29:28.653Z,18.03
2019-03-23T20:31:57.285Z,18.47
2019-03-23T20:34:25.882Z,19.87
2019-03-23T20:36:55.181Z,20.60
2019-03-23T20:39:23.775Z,18.77
2019-03-23T20:41:53.098Z,19.40
2019-03-23T20:44:21.693Z,19.77
2019-03-23T20:46:50.983Z,18.30
2019-03-23T20:49:20.450Z,19.43
2019-03-23T20:51:50.021Z,19.87
2019-03-23T20:54:19.609Z,20.40
2019-03-23T20:56:48.909Z,21.37
2019-03-23T20:59:18.259Z,19.53
2019-03-23T21:01:47.576Z,22.03
2019-03-23T21:04:16.193Z,20.90
2019-03-23T21:06:45.550Z,19.53
2019-03-23T21:09:14.133Z,20.23
2019-03-23T21:11:42.709Z,20.63
2019-03-23T21:14:19.863Z,17.00
2019-03-23T21:16:42.360Z,20.40
2019-03-23T21:19:11.663Z,21.93
2019-03-23T21:21:40.972Z,21.23
2019-03-23T21:24:10.317Z,18.63
2019-03-23T21:26:41.342Z,19.77
2019-03-23T21:29:10.869Z,19.87
2019-03-23T21:31:40.172Z,20.43
2019-03-23T21:34:09.541Z,19.53
2019-03-23T21:36:38.877Z,21.07
2019-03-23T21:39:08.350Z,19.40
2019-03-23T21:41:37.660Z,19.03
2019-03-23T21:44:06.249Z,20.33
2019-03-23T21:46:35.593Z,17.77
2019-03-23T21:49:04.240Z,20.20
2019-03-23T21:51:33.537Z,19.60
2019-03-23T21:54:02.833Z,18.00
2019-03-23T21:56:32.274Z,26.10
2019-03-23T21:59:01.809Z,28.13
2019-03-23T22:01:31.118Z,24.37
2019-03-23T22:03:59.706Z,20.43
2019-03-23T22:06:28.322Z,19.60
2019-03-23T22:08:57.634Z,20.10
2019-03-23T22:11:26.214Z,20.40
2019-03-23T22:13:55.506Z,17.73
2019-03-23T22:16:24.089Z,19.40
2019-03-23T22:18:54.392Z,19.40
2019-03-23T22:21:25.383Z,17.37
2019-03-23T22:23:54.053Z,18.30
2019-03-23T22:26:22.670Z,17.47
2019-03-23T22:28:51.998Z,18.03
2019-03-23T22:31:20.613Z,18.97
2019-03-23T22:33:49.899Z,18.33
2019-03-23T22:36:18.521Z,18.87
2019-03-23T22:38:47.813Z,17.73
2019-03-23T22:41:16.416Z,18.90
2019-03-23T22:43:44.993Z,19.23
2019-03-23T22:46:13.577Z,18.37
2019-03-23T22:48:42.170Z,19.83
2019-03-23T22:51:11.489Z,18.90
2019-03-23T22:53:40.799Z,19.27
2019-03-23T22:56:10.124Z,18.10
2019-03-23T22:58:39.431Z,18.33
2019-03-23T23:01:08.949Z,18.50
2019-03-23T23:03:38.400Z,18.80
2019-03-23T23:06:07.889Z,17.70
2019-03-23T23:08:36.485Z,18.87
2019-03-23T23:11:06.193Z,19.25
2019-03-23T23:13:37.120Z,19.70
2019-03-23T23:16:05.809Z,18.83
2019-03-23T23:18:34.491Z,17.17
2019-03-23T23:21:03.873Z,16.73
2019-03-23T23:23:33.182Z,19.37
2019-03-23T23:26:02.494Z,19.73
2019-03-23T23:28:31.795Z,20.87
2019-03-23T23:31:00.649Z,18.37
2019-03-23T23:33:29.953Z,18.63
2019-03-23T23:35:59.237Z,18.33
2019-03-23T23:38:27.832Z,18.13
2019-03-23T23:40:56.505Z,18.50
2019-03-23T23:43:25.890Z,18.50
2019-03-23T23:45:54.478Z,17.63
2019-03-23T23:48:24.220Z,18.57
2019-03-23T23:50:53.578Z,20.03
2019-03-23T23:53:23.405Z,17.43
2019-03-23T23:55:52.729Z,19.90
2019-03-23T23:58:22.020Z,18.63
